地図

経路データ

SID SEASON NUMBER BASIN SUBBASIN NAME ISO_TIME NATURE LAT LON WMO_WIND WMO_PRES WMO_AGENCY TRACK_TYPE DIST2LAND LANDFALL IFLAG USA_AGENCY USA_ATCF_ID USA_LAT USA_LON USA_RECORD USA_STATUS USA_WIND USA_PRES USA_SSHS USA_R34_NE USA_R34_SE USA_R34_SW USA_R34_NW USA_R50_NE USA_R50_SE USA_R50_SW USA_R50_NW USA_R64_NE USA_R64_SE USA_R64_SW USA_R64_NW USA_POCI USA_ROCI USA_RMW USA_EYE TOKYO_LAT TOKYO_LON TOKYO_GRADE TOKYO_WIND TOKYO_PRES TOKYO_R50_DIR TOKYO_R50_LONG TOKYO_R50_SHORT TOKYO_R30_DIR TOKYO_R30_LONG TOKYO_R30_SHORT TOKYO_LAND CMA_LAT CMA_LON CMA_CAT CMA_WIND CMA_PRES HKO_LAT HKO_LON HKO_CAT HKO_WIND HKO_PRES NEWDELHI_LAT NEWDELHI_LON NEWDELHI_GRADE NEWDELHI_WIND NEWDELHI_PRES NEWDELHI_CI NEWDELHI_DP NEWDELHI_POCI REUNION_LAT REUNION_LON REUNION_TYPE REUNION_WIND REUNION_PRES REUNION_TNUM REUNION_CI REUNION_RMW REUNION_R34_NE REUNION_R34_SE REUNION_R34_SW REUNION_R34_NW REUNION_R50_NE REUNION_R50_SE REUNION_R50_SW REUNION_R50_NW REUNION_R64_NE REUNION_R64_SE REUNION_R64_SW REUNION_R64_NW BOM_LAT BOM_LON BOM_TYPE BOM_WIND BOM_PRES BOM_TNUM BOM_CI BOM_RMW BOM_R34_NE BOM_R34_SE BOM_R34_SW BOM_R34_NW BOM_R50_NE BOM_R50_SE BOM_R50_SW BOM_R50_NW BOM_R64_NE BOM_R64_SE BOM_R64_SW BOM_R64_NW BOM_ROCI BOM_POCI BOM_EYE BOM_POS_METHOD BOM_PRES_METHOD NADI_LAT NADI_LON NADI_CAT NADI_WIND NADI_PRES WELLINGTON_LAT WELLINGTON_LON WELLINGTON_WIND WELLINGTON_PRES DS824_LAT DS824_LON DS824_STAGE DS824_WIND DS824_PRES TD9636_LAT TD9636_LON TD9636_STAGE TD9636_WIND TD9636_PRES TD9635_LAT TD9635_LON TD9635_WIND TD9635_PRES TD9635_ROCI NEUMANN_LAT NEUMANN_LON NEUMANN_CLASS NEUMANN_WIND NEUMANN_PRES MLC_LAT MLC_LON MLC_CLASS MLC_WIND MLC_PRES USA_GUST BOM_GUST BOM_GUST_PER REUNION_GUST REUNION_GUST_PER USA_SEAHGT USA_SEARAD_NE USA_SEARAD_SE USA_SEARAD_SW USA_SEARAD_NW STORM_SPEED STORM_DIR
1991219N25165 1991 46 WP MM DOUG 1991-08-07 06:00:00 NR 24.9000 164.800 main 2578 2555 O__O__________ jtwc_wp WP101991 25.0000 164.600 20 -1 24.8000 165.000 TD 25 1000 3 295
1991219N25165 1991 46 WP MM DOUG 1991-08-07 09:00:00 NR 24.9701 164.636 main 2555 2541 P__P__________ WP101991 25.0676 164.405 20 -1 24.8726 164.868 TD 27 997 4 302
1991219N25165 1991 46 WP MM DOUG 1991-08-07 12:00:00 NR 25.1000 164.450 main 2541 2503 O__O__________ jtwc_wp WP101991 25.2000 164.200 20 -1 25.0000 164.700 TD 30 995 5 314
1991219N25165 1991 46 WP MM DOUG 1991-08-07 15:00:00 NR 25.3336 164.216 main 2503 2460 P__P__________ WP101991 25.4349 163.973 20 -1 25.2323 164.459 TD 30 995 7 318
1991219N25165 1991 46 WP MM DOUG 1991-08-07 18:00:00 NR 25.6500 163.900 main 2454 2402 O__O__________ jtwc_wp WP101991 25.7000 163.700 20 -1 25.6000 164.100 TD 30 995 10 316
1991219N25165 1991 46 WP MM DOUG 1991-08-07 21:00:00 NR 26.0289 163.469 main 2402 2354 P__P__________ WP101991 25.9076 163.357 20 -1 26.1502 163.581 TD 27 997 9 301
1991219N25165 1991 46 WP MM DOUG 1991-08-08 00:00:00 TS 26.1333 163.000 main 2354 2314 O_OO__________ jtwc_wp WP101991 26.1000 163.000 20 -1 24.0000 163.000 0 19 1002 26.7000 163.000 TD 25 1000 8 283
1991219N25165 1991 46 WP MM DOUG 1991-08-08 03:00:00 TS 26.2123 162.602 main 2314 2275 P_PP__________ WP101991 26.2997 162.715 20 -1 24.3427 162.598 0 19 1002 27.0597 162.492 TD 25 1000 7 283
1991219N25165 1991 46 WP MM DOUG 1991-08-08 06:00:00 TS 26.3000 162.200 main 2275 2235 O_OO__________ jtwc_wp WP101991 26.5000 162.400 20 -1 24.7000 162.200 0 19 1002 27.3000 162.000 TD 25 1000 8 285
1991219N25165 1991 46 WP MM DOUG 1991-08-08 09:00:00 TS 26.4165 161.762 main 2235 2175 P_PP__________ WP101991 26.7000 161.980 22 -1 25.0848 161.807 0 19 1002 27.4648 161.499 TD 25 1000 9 294
1991219N25165 1991 46 WP MM DOUG 1991-08-08 12:00:00 TS 26.6667 161.300 main 2175 2121 O_OO__________ jtwc_wp WP101991 26.9000 161.500 25 -1 25.5000 161.400 0 19 1002 27.6000 161.000 TD 25 1000 10 301
1991219N25165 1991 46 WP MM DOUG 1991-08-08 15:00:00 TS 26.9300 160.804 main 2121 2070 P_PP__________ WP101991 27.0700 161.000 25 -1 25.9276 160.942 0 19 1002 27.7926 160.470 TD 25 1000 10 303
1991219N25165 1991 46 WP MM DOUG 1991-08-08 18:00:00 TS 27.2333 160.333 main 2062 2013 O_OO__________ jtwc_wp WP101991 27.3000 160.500 25 -1 26.4000 160.500 0 19 1002 28.0000 160.000 TD 25 1000 10 311
1991219N25165 1991 46 WP MM DOUG 1991-08-08 21:00:00 TS 27.6040 159.937 main 2005 1956 P_PP__________ WP101991 27.6700 160.020 27 -1 26.9573 160.135 0 19 1002 28.1848 159.655 TD 25 1000 10 320
1991219N25165 1991 46 WP MM DOUG 1991-08-09 00:00:00 TS 28.0000 159.600 main 1956 1914 O_OO__________ jtwc_wp WP101991 28.1000 159.600 30 -1 27.5000 159.800 0 19 1002 28.4000 159.400 TD 25 1000 9 324
1991219N25165 1991 46 WP MM DOUG 1991-08-09 03:00:00 TS 28.3590 159.311 main 1908 1866 P_PP__________ WP101991 28.4922 159.284 30 -1 27.9149 159.449 0 24 1001 28.6698 159.200 TD 30 995 9 326
1991219N25165 1991 46 WP MM DOUG 1991-08-09 06:00:00 TS 28.7333 159.033 main 1866 1819 O_OO__________ jtwc_wp WP101991 28.9000 159.000 30 -1 28.3000 159.100 1 29 1000 29.0000 159.000 TS 35 990 9 326
1991219N25165 1991 46 WP MM DOUG 1991-08-09 09:00:00 TS 29.1441 158.710 main 1819 1767 P_PP__________ WP101991 29.3273 158.672 32 -1 28.7275 158.742 1 29 1000 29.3775 158.715 TS 37 987 10 326
1991219N25165 1991 46 WP MM DOUG 1991-08-09 12:00:00 TS 29.6000 158.367 main 1767 1722 O_OO__________ jtwc_wp WP101991 29.8000 158.300 35 0 29.2000 158.400 1 29 1000 29.8000 158.400 TS 40 985 11 328
1991219N25165 1991 46 WP MM DOUG 1991-08-09 15:00:00 TS 30.0740 158.033 main 1708 1658 P_PP__________ WP101991 30.3125 157.865 35 0 29.7048 158.107 1 29 1000 30.2047 158.129 TS 37 987 12 330
1991219N25165 1991 46 WP MM DOUG 1991-08-09 18:00:00 TS 30.6333 157.667 main 1658 1588 O_OO__________ jtwc_wp WP101991 30.9000 157.400 35 0 30.3000 157.800 1 29 1000 30.7000 157.800 TS 35 990 14 329
1991219N25165 1991 46 WP MM DOUG 1991-08-09 21:00:00 TS 31.2878 157.200 main 1583 1520 P_PP__________ WP101991 31.5628 156.891 35 0 30.9901 157.407 1 29 1000 31.3105 157.300 TS 32 992 16 332
1991219N25165 1991 46 WP MM DOUG 1991-08-10 00:00:00 TS 32.0667 156.767 main 1516 1452 O_OO__________ jtwc_wp WP101991 32.3000 156.500 35 0 31.8000 157.000 1 29 1000 32.1000 156.800 TD 30 995 18 339
1991219N25165 1991 46 WP MM DOUG 1991-08-10 03:00:00 TS 32.9649 156.430 main 1449 1393 P_PP__________ WP101991 33.0772 156.352 35 0 32.7351 156.569 1 29 1000 33.0823 156.368 TD 27 995 19 348
1991219N25165 1991 46 WP MM DOUG 1991-08-10 06:00:00 TS 33.9333 156.300 main 1393 1323 O_OO__________ jtwc_wp WP101991 33.9000 156.400 35 0 33.7000 156.300 1 29 1000 34.2000 156.200 TD 25 995 19 360
1991219N25165 1991 46 WP MM DOUG 1991-08-10 09:00:00 TS 34.8627 156.409 main 1314 1247 P_PP__________ WP101991 34.7346 156.504 32 -1 34.5342 156.294 1 29 1000 35.3194 156.428 TD 25 995 19 12
1991219N25165 1991 46 WP MM DOUG 1991-08-10 12:00:00 TS 35.7727 156.782 main 1241 1174 O_OO__________ jtwc_wp WP101991 35.6000 156.800 30 -1 35.4000 156.600 1 29 1000 36.5000 157.000 TD 25 995 20 23
1991219N25165 1991 46 WP MM DOUG 1991-08-10 15:00:00 TS 36.7185 157.362 main 1179 1123 P_PP__________ WP101991 36.4849 157.311 30 -1 36.4429 157.201 1 29 1000 37.7367 157.788 TD 25 995 22 29
1991219N25165 1991 46 WP MM DOUG 1991-08-10 18:00:00 TS 37.6714 158.100 main 1119 1097 O_OO__________ jtwc_wp WP101991 37.4000 158.000 30 -1 37.5000 158.000 1 29 1000 39.0000 158.700 TD 25 995 20 34
1991219N25165 1991 46 WP MM DOUG 1991-08-10 21:00:00 TS 38.3920 158.791 main 1094 1063 P_P___________ WP101991 38.3436 158.776 30 -1 38.4405 158.806 1 29 1000 TD 20 36
1991219N25165 1991 46 WP MM DOUG 1991-08-11 00:00:00 TS 39.3000 159.600 main 1061 O_O___________ jtwc_wp WP101991 39.3000 159.600 30 -1 39.3000 159.600 1 29 1000 22 35

デジタル台風データ・検索

IBTrACS Databaseについて

本データベースは、米国NOAAが公開する1842年以降の世界の熱帯低気圧のベストトラックデータアーカイブInternational Best Track Archive for Climate Stewardship (IBTrACS)を、ウェブで閲覧しやすい形式に変換したものです。

最終更新日:2021-11-26